createdAt,value
2023-01-11T00:01:11.442Z,3.30
2023-01-11T00:03:38.929Z,3.30
2023-01-11T00:06:08.039Z,3.30
2023-01-11T00:08:34.904Z,3.30
2023-01-11T00:11:02.449Z,3.30
2023-01-11T00:13:30.421Z,3.20
2023-01-11T00:15:57.485Z,3.30
2023-01-11T00:18:24.401Z,3.30
2023-01-11T00:20:51.349Z,3.30
2023-01-11T00:23:18.349Z,3.20
2023-01-11T00:25:45.408Z,3.20
2023-01-11T00:28:12.395Z,3.20
2023-01-11T00:30:39.346Z,3.20
2023-01-11T00:33:06.245Z,3.20
2023-01-11T00:35:35.478Z,3.10
2023-01-11T00:38:02.339Z,3.10
2023-01-11T00:40:29.266Z,3.10
2023-01-11T00:43:14.816Z,3.10
2023-01-11T00:46:00.580Z,3.10
2023-01-11T00:48:27.518Z,3.00
2023-01-11T00:50:57.094Z,3.00
2023-01-11T00:53:23.909Z,3.10
2023-01-11T00:55:50.771Z,3.00
2023-01-11T00:58:17.756Z,3.10
2023-01-11T01:00:44.729Z,3.10
2023-01-11T01:03:11.636Z,3.10
2023-01-11T01:05:39.342Z,3.10
2023-01-11T01:08:06.698Z,3.00
2023-01-11T01:10:33.599Z,3.00
2023-01-11T01:13:21.209Z,3.00
2023-01-11T01:15:48.138Z,3.00
2023-01-11T01:18:15.048Z,3.00
2023-01-11T01:20:41.898Z,3.00
2023-01-11T01:23:08.838Z,3.00
2023-01-11T01:25:38.043Z,3.00
2023-01-11T01:28:05.167Z,2.90
2023-01-11T01:30:32.160Z,3.00
2023-01-11T01:32:59.144Z,2.90
2023-01-11T01:35:26.148Z,3.00
2023-01-11T01:37:53.207Z,2.90
2023-01-11T01:40:20.206Z,2.90
2023-01-11T01:42:47.171Z,2.90
2023-01-11T01:45:24.084Z,2.90
2023-01-11T01:47:58.005Z,2.90
2023-01-11T01:50:36.199Z,3.00
2023-01-11T01:53:08.739Z,2.90
2023-01-11T01:55:39.610Z,2.90
2023-01-11T01:58:10.672Z,3.00
2023-01-11T02:00:41.074Z,3.00
2023-01-11T02:03:09.757Z,2.90
2023-01-11T02:05:36.718Z,2.90
2023-01-11T02:08:08.394Z,2.90
2023-01-11T02:10:35.357Z,2.90
2023-01-11T02:13:09.725Z,2.90
2023-01-11T02:15:37.006Z,3.00
2023-01-11T02:18:05.300Z,2.90
2023-01-11T02:20:59.347Z,2.90
2023-01-11T02:24:09.975Z,2.90
2023-01-11T02:27:00.758Z,2.90
2023-01-11T02:29:48.740Z,2.90
2023-01-11T02:32:25.579Z,2.90
2023-01-11T02:35:00.783Z,2.90
2023-01-11T02:37:27.592Z,2.90
2023-01-11T02:40:16.032Z,2.90
2023-01-11T02:43:12.713Z,2.90
2023-01-11T02:46:20.647Z,2.90
2023-01-11T02:48:53.336Z,2.90
2023-01-11T02:51:33.833Z,2.90
2023-01-11T02:54:08.442Z,2.90
2023-01-11T02:56:42.536Z,2.90
2023-01-11T02:59:15.698Z,2.80
2023-01-11T03:01:51.677Z,2.80
2023-01-11T03:04:30.691Z,2.80
2023-01-11T03:07:18.633Z,2.80
2023-01-11T03:09:57.230Z,2.90
2023-01-11T03:12:57.183Z,2.80
2023-01-11T03:15:30.376Z,2.80
2023-01-11T03:18:27.256Z,2.80
2023-01-11T03:21:24.591Z,2.80
2023-01-11T03:24:11.518Z,2.80
2023-01-11T03:26:39.096Z,2.80
2023-01-11T03:29:23.031Z,2.80
2023-01-11T03:31:53.854Z,2.80
2023-01-11T03:34:39.341Z,2.70
2023-01-11T03:37:31.235Z,2.80
2023-01-11T03:40:19.399Z,2.70
2023-01-11T03:43:09.411Z,2.70
2023-01-11T03:45:50.006Z,2.70
2023-01-11T03:48:51.884Z,2.70
2023-01-11T03:51:28.516Z,2.70
2023-01-11T03:54:02.011Z,2.70
2023-01-11T03:56:56.378Z,2.70
2023-01-11T03:59:23.283Z,2.70
2023-01-11T04:01:52.540Z,2.70
2023-01-11T04:04:19.430Z,2.70
2023-01-11T04:06:46.518Z,2.70
2023-01-11T04:09:13.367Z,2.70
2023-01-11T04:11:40.203Z,2.70
2023-01-11T04:14:07.212Z,2.70
2023-01-11T04:16:34.071Z,2.70
2023-01-11T04:19:02.982Z,2.70
2023-01-11T04:21:30.321Z,2.60
2023-01-11T04:23:57.316Z,2.60
2023-01-11T04:26:24.249Z,2.60
2023-01-11T04:28:53.401Z,2.70
2023-01-11T04:31:21.475Z,2.60
2023-01-11T04:33:48.501Z,2.60
2023-01-11T04:36:15.518Z,2.60
2023-01-11T04:38:42.367Z,2.60
2023-01-11T04:41:28.334Z,2.70
2023-01-11T04:43:56.525Z,2.70
2023-01-11T04:46:24.892Z,2.70
2023-01-11T04:48:53.302Z,3.40
2023-01-11T04:51:20.305Z,2.70
2023-01-11T04:53:51.811Z,2.70
2023-01-11T04:56:18.713Z,2.70
2023-01-11T04:58:46.280Z,2.60
2023-01-11T05:01:17.388Z,2.60
2023-01-11T05:03:45.484Z,2.00
2023-01-11T05:06:13.600Z,2.60
2023-01-11T05:08:41.176Z,2.70
2023-01-11T05:11:08.634Z,2.60
2023-01-11T05:13:45.136Z,2.60
2023-01-11T05:16:19.561Z,2.60
2023-01-11T05:18:49.290Z,2.60
2023-01-11T05:21:18.437Z,2.60
2023-01-11T05:23:45.461Z,2.60
2023-01-11T05:26:20.176Z,2.60
2023-01-11T05:28:47.259Z,2.60
2023-01-11T05:31:14.318Z,2.60
2023-01-11T05:33:41.539Z,2.60
2023-01-11T05:36:12.853Z,2.60
2023-01-11T05:38:40.031Z,2.60
2023-01-11T05:41:09.402Z,2.50
2023-01-11T05:43:56.101Z,2.60
2023-01-11T05:46:23.534Z,2.50
2023-01-11T05:48:50.815Z,2.50
2023-01-11T05:51:17.735Z,2.60
2023-01-11T05:53:47.391Z,2.50
2023-01-11T05:56:14.327Z,2.60
2023-01-11T05:58:41.266Z,2.60
2023-01-11T06:01:08.208Z,2.60
2023-01-11T06:03:35.165Z,2.60
2023-01-11T06:06:02.069Z,2.60
2023-01-11T06:08:29.025Z,2.60
2023-01-11T06:10:56.968Z,2.50
2023-01-11T06:13:28.302Z,2.50
2023-01-11T06:16:04.109Z,2.50
2023-01-11T06:18:33.197Z,2.50
2023-01-11T06:21:01.270Z,2.50
2023-01-11T06:23:29.793Z,2.50
2023-01-11T06:25:56.690Z,2.50
2023-01-11T06:28:23.557Z,2.50
2023-01-11T06:30:54.771Z,2.50
2023-01-11T06:33:23.720Z,2.50
2023-01-11T06:35:50.654Z,2.50
2023-01-11T06:38:19.383Z,2.50
2023-01-11T06:40:56.624Z,2.50
2023-01-11T06:43:25.212Z,2.50
2023-01-11T06:45:52.849Z,2.50
2023-01-11T06:48:20.921Z,2.40
2023-01-11T06:50:49.324Z,2.40
2023-01-11T06:53:16.410Z,2.40
2023-01-11T06:55:44.280Z,2.40
2023-01-11T06:58:11.175Z,2.40
2023-01-11T07:00:38.437Z,2.40
2023-01-11T07:03:06.724Z,2.40
2023-01-11T07:05:34.718Z,2.40
2023-01-11T07:08:01.984Z,2.40
2023-01-11T07:10:29.041Z,2.40
2023-01-11T07:12:55.974Z,2.40
2023-01-11T07:15:22.992Z,2.40
2023-01-11T07:17:55.192Z,2.40
2023-01-11T07:20:23.258Z,2.40
2023-01-11T07:22:51.148Z,2.40
2023-01-11T07:25:18.650Z,2.40
2023-01-11T07:27:45.602Z,2.30
2023-01-11T07:30:12.901Z,3.50
2023-01-11T07:32:40.413Z,2.30
2023-01-11T07:35:07.738Z,2.30
2023-01-11T07:37:37.723Z,2.30
2023-01-11T07:40:05.373Z,2.30
2023-01-11T07:42:50.707Z,2.30
2023-01-11T07:45:17.924Z,2.30
2023-01-11T07:47:44.820Z,2.30
2023-01-11T07:50:11.894Z,2.30
2023-01-11T07:52:38.855Z,2.30
2023-01-11T07:55:06.121Z,2.30
2023-01-11T07:57:34.936Z,2.20
2023-01-11T08:00:01.896Z,2.20
2023-01-11T08:02:28.889Z,2.20
2023-01-11T08:04:56.115Z,2.20
2023-01-11T08:07:23.005Z,2.20
2023-01-11T08:09:49.956Z,2.20
2023-01-11T08:12:36.249Z,2.20
2023-01-11T08:15:03.553Z,2.20
2023-01-11T08:17:30.697Z,2.20
2023-01-11T08:19:57.792Z,2.20
2023-01-11T08:22:24.785Z,2.20
2023-01-11T08:24:51.638Z,2.10
2023-01-11T08:27:18.538Z,2.20
2023-01-11T08:29:45.529Z,2.10
2023-01-11T08:32:13.330Z,2.10
2023-01-11T08:34:40.688Z,2.10
2023-01-11T08:37:07.603Z,2.10
2023-01-11T08:39:34.609Z,2.10
2023-01-11T08:42:03.199Z,2.00
2023-01-11T08:44:34.496Z,2.10
2023-01-11T08:47:03.023Z,2.10
2023-01-11T08:49:30.768Z,2.00
2023-01-11T08:51:57.890Z,2.00
2023-01-11T08:54:25.262Z,2.00
2023-01-11T08:56:52.200Z,2.00
2023-01-11T08:59:20.147Z,1.90
2023-01-11T09:01:47.475Z,1.90
2023-01-11T09:04:24.340Z,1.90
2023-01-11T09:06:52.909Z,1.90
2023-01-11T09:09:19.850Z,1.90
2023-01-11T09:11:56.689Z,1.80
2023-01-11T09:14:25.583Z,1.80
2023-01-11T09:16:53.529Z,1.80
2023-01-11T09:19:20.892Z,1.80
2023-01-11T09:21:48.492Z,1.80
2023-01-11T09:24:15.492Z,1.80
2023-01-11T09:26:43.634Z,1.80
2023-01-11T09:29:11.793Z,1.80
2023-01-11T09:31:38.884Z,1.80
2023-01-11T09:34:07.226Z,1.80
2023-01-11T09:36:36.350Z,1.80
2023-01-11T09:39:07.753Z,1.80
2023-01-11T09:42:10.340Z,1.80
2023-01-11T09:44:49.977Z,1.70
2023-01-11T09:47:36.749Z,1.70
2023-01-11T09:50:12.284Z,1.80
2023-01-11T09:52:45.296Z,1.70
2023-01-11T09:55:16.485Z,1.70
2023-01-11T09:58:00.690Z,1.70
2023-01-11T10:00:44.432Z,1.70
2023-01-11T10:03:33.218Z,1.60
2023-01-11T10:06:26.712Z,1.70
2023-01-11T10:18:33.080Z,1.60
2023-01-11T10:18:49.758Z,1.60
2023-01-11T10:21:23.515Z,1.60
2023-01-11T10:24:03.205Z,1.60
2023-01-11T10:26:42.135Z,1.60
2023-01-11T10:30:07.298Z,1.60
2023-01-11T10:32:54.404Z,1.60
2023-01-11T10:35:47.885Z,1.60
2023-01-11T10:38:50.099Z,1.60
2023-01-11T10:41:30.019Z,1.60
2023-01-11T10:44:13.121Z,1.60
2023-01-11T10:46:46.166Z,1.60
2023-01-11T10:49:34.576Z,1.60
2023-01-11T10:52:33.713Z,1.60
2023-01-11T10:55:04.154Z,1.60
2023-01-11T10:57:59.192Z,1.60
2023-01-11T11:00:51.667Z,1.70
2023-01-11T11:03:21.580Z,1.60
2023-01-11T11:05:55.904Z,1.60
2023-01-11T11:08:34.802Z,1.60
2023-01-11T11:11:18.370Z,1.70
2023-01-11T11:14:14.674Z,1.70
2023-01-11T11:17:07.239Z,1.60
2023-01-11T11:19:35.849Z,1.60
2023-01-11T11:22:03.229Z,4.50
2023-01-11T11:24:41.558Z,1.60
2023-01-11T11:27:29.215Z,1.60
2023-01-11T11:29:57.257Z,1.70
2023-01-11T11:32:53.440Z,1.60
2023-01-11T11:35:31.126Z,1.60
2023-01-11T11:37:58.505Z,1.60
2023-01-11T11:40:38.165Z,1.60
2023-01-11T11:43:22.677Z,1.60
2023-01-11T11:45:58.744Z,1.60
2023-01-11T11:48:29.134Z,1.60
2023-01-11T11:51:01.404Z,1.60
2023-01-11T11:53:46.160Z,1.60
2023-01-11T11:56:30.022Z,1.70
2023-01-11T11:58:58.630Z,1.60
2023-01-11T12:01:33.619Z,1.60
2023-01-11T12:04:22.479Z,1.60
2023-01-11T12:07:12.678Z,1.60
2023-01-11T12:09:42.638Z,1.50
2023-01-11T12:12:19.353Z,1.50
2023-01-11T12:15:06.277Z,1.50
2023-01-11T12:17:33.259Z,1.50
2023-01-11T12:20:00.514Z,1.50
2023-01-11T12:22:29.272Z,1.50
2023-01-11T12:25:16.940Z,1.50
2023-01-11T12:28:02.759Z,1.50
2023-01-11T12:30:41.486Z,1.50
2023-01-11T12:33:22.430Z,1.50
2023-01-11T12:36:04.974Z,1.50
2023-01-11T12:38:41.649Z,1.50
2023-01-11T12:41:45.469Z,1.50
2023-01-11T12:44:40.653Z,1.40
2023-01-11T12:47:17.979Z,1.50
2023-01-11T12:50:00.840Z,1.50
2023-01-11T12:52:36.893Z,1.50
2023-01-11T12:55:39.315Z,1.50
2023-01-11T12:58:23.934Z,1.50
2023-01-11T13:01:12.956Z,1.50
2023-01-11T13:04:05.947Z,1.50
2023-01-11T13:07:09.737Z,1.50
2023-01-11T13:09:42.387Z,1.40
2023-01-11T13:12:29.820Z,1.40
2023-01-11T13:15:26.916Z,1.40
2023-01-11T13:18:19.254Z,1.50
2023-01-11T13:21:14.405Z,1.30
2023-01-11T13:23:53.505Z,1.30
2023-01-11T13:26:36.020Z,1.30
2023-01-11T13:29:06.784Z,1.30
2023-01-11T13:31:38.869Z,1.20
2023-01-11T13:34:28.803Z,1.20
2023-01-11T13:37:17.863Z,1.20
2023-01-11T13:39:44.796Z,1.20
2023-01-11T13:42:21.480Z,1.20
2023-01-11T13:45:04.721Z,1.20
2023-01-11T13:47:39.390Z,1.20
2023-01-11T13:50:30.287Z,1.10
2023-01-11T13:53:12.079Z,1.10
2023-01-11T13:55:57.611Z,1.10
2023-01-11T13:59:03.584Z,1.10
2023-01-11T14:01:56.353Z,1.10
2023-01-11T14:04:33.243Z,1.10
2023-01-11T14:07:13.414Z,1.00
2023-01-11T14:10:16.733Z,1.00
2023-01-11T14:13:07.934Z,1.10
2023-01-11T14:15:58.227Z,1.00
2023-01-11T14:18:46.349Z,1.00
2023-01-11T14:21:30.720Z,1.00
2023-01-11T14:23:58.630Z,1.00
2023-01-11T14:26:40.808Z,1.10
2023-01-11T14:29:33.833Z,1.10
2023-01-11T14:32:24.602Z,1.00
2023-01-11T14:34:57.598Z,1.00
2023-01-11T14:37:31.063Z,1.00
2023-01-11T14:40:19.467Z,1.20
2023-01-11T14:43:05.435Z,1.10
2023-01-11T14:46:00.038Z,1.10
2023-01-11T14:48:47.311Z,1.10
2023-01-11T14:51:25.907Z,1.10
2023-01-11T14:54:10.658Z,1.10
2023-01-11T14:56:57.982Z,1.10
2023-01-11T14:59:39.893Z,1.00
2023-01-11T15:02:15.577Z,1.10
2023-01-11T15:04:55.509Z,1.10
2023-01-11T15:07:34.733Z,1.10
2023-01-11T15:10:25.873Z,1.10
2023-01-11T15:12:55.431Z,1.10
2023-01-11T15:15:45.883Z,1.10
2023-01-11T15:18:20.084Z,1.20
2023-01-11T15:20:58.811Z,1.10
2023-01-11T15:23:26.346Z,1.20
2023-01-11T15:26:06.935Z,1.20
2023-01-11T15:28:56.094Z,1.20
2023-01-11T15:32:04.488Z,1.20
2023-01-11T15:34:31.427Z,1.20
2023-01-11T15:37:02.037Z,1.20
2023-01-11T15:39:53.637Z,1.20
2023-01-11T15:42:48.182Z,1.20
2023-01-11T15:46:00.751Z,0.80
2023-01-11T15:48:48.934Z,1.20
2023-01-11T15:51:58.147Z,1.20
2023-01-11T15:54:30.860Z,1.30
2023-01-11T15:57:23.096Z,1.30
2023-01-11T16:00:25.313Z,1.30
2023-01-11T16:03:25.991Z,1.30
2023-01-11T16:06:19.607Z,1.30
2023-01-11T16:08:51.565Z,-1.20
2023-01-11T16:11:45.335Z,1.30
2023-01-11T16:14:39.746Z,1.30
2023-01-11T16:17:13.828Z,1.30
2023-01-11T16:19:44.849Z,1.30
2023-01-11T16:22:17.213Z,1.30
2023-01-11T16:24:47.555Z,1.30
2023-01-11T16:27:28.129Z,1.30
2023-01-11T16:29:56.063Z,1.20
2023-01-11T16:32:32.840Z,1.30
2023-01-11T16:35:16.172Z,1.30
2023-01-11T16:37:46.095Z,1.30
2023-01-11T16:40:18.418Z,1.30
2023-01-11T16:43:31.723Z,1.30
2023-01-11T16:46:03.650Z,1.30
2023-01-11T16:48:34.524Z,1.30
2023-01-11T16:51:25.950Z,1.30
2023-01-11T16:53:59.615Z,1.30
2023-01-11T16:56:43.995Z,1.30
2023-01-11T16:59:30.713Z,1.30
2023-01-11T17:02:09.859Z,1.10
2023-01-11T17:05:05.124Z,1.30
2023-01-11T17:10:26.168Z,1.30
2023-01-11T17:13:55.191Z,1.30
2023-01-11T17:16:34.989Z,1.30
2023-01-11T17:19:24.218Z,1.30
2023-01-11T17:22:09.525Z,1.30
2023-01-11T17:24:49.671Z,1.30
2023-01-11T17:27:47.244Z,1.30
2023-01-11T17:30:31.223Z,1.30
2023-01-11T17:33:11.561Z,1.30
2023-01-11T17:35:45.261Z,1.30
2023-01-11T17:38:20.818Z,1.40
2023-01-11T17:40:51.877Z,1.30
2023-01-11T17:43:44.058Z,1.40
2023-01-11T17:46:21.923Z,1.40
2023-01-11T17:49:20.463Z,1.40
2023-01-11T17:51:59.593Z,1.40
2023-01-11T17:54:32.998Z,1.40
2023-01-11T17:57:05.721Z,1.40
2023-01-11T17:59:33.278Z,1.20
2023-01-11T18:02:18.852Z,1.40
2023-01-11T18:04:49.759Z,1.40
2023-01-11T18:07:17.993Z,1.40
2023-01-11T18:09:59.574Z,1.40
2023-01-11T18:12:41.644Z,1.40
2023-01-11T18:15:23.421Z,1.40
2023-01-11T18:18:00.791Z,1.40
2023-01-11T18:20:32.731Z,1.40
2023-01-11T18:23:05.807Z,1.30
2023-01-11T18:25:36.508Z,1.40
2023-01-11T18:28:14.929Z,1.30
2023-01-11T18:30:46.795Z,1.30
2023-01-11T18:33:23.866Z,1.40
2023-01-11T18:35:55.516Z,1.40
2023-01-11T18:38:29.025Z,1.40
2023-01-11T18:41:21.701Z,1.40
2023-01-11T18:43:52.059Z,1.40
2023-01-11T18:46:19.344Z,1.40
2023-01-11T18:48:46.559Z,1.40
2023-01-11T18:51:33.840Z,1.40
2023-01-11T18:54:00.956Z,1.40
2023-01-11T18:56:28.936Z,1.30
2023-01-11T18:58:58.890Z,1.40
2023-01-11T19:01:26.188Z,1.40
2023-01-11T19:04:04.178Z,1.30
2023-01-11T19:06:31.460Z,1.40
2023-01-11T19:08:58.792Z,1.40
2023-01-11T19:11:31.536Z,1.40
2023-01-11T19:14:00.555Z,1.40
2023-01-11T19:16:27.746Z,1.40
2023-01-11T19:19:07.538Z,1.30
2023-01-11T19:21:40.772Z,1.30
2023-01-11T19:24:10.928Z,1.30
2023-01-11T19:26:37.761Z,1.30
2023-01-11T19:29:04.577Z,1.30
2023-01-11T19:31:31.404Z,1.30
2023-01-11T19:33:58.215Z,1.30
2023-01-11T19:36:25.131Z,1.40
2023-01-11T19:38:51.926Z,1.30
2023-01-11T19:41:18.717Z,1.30
2023-01-11T19:43:45.474Z,1.30
2023-01-11T19:46:13.662Z,1.30
2023-01-11T19:48:41.822Z,1.30
2023-01-11T19:51:10.513Z,1.30
2023-01-11T19:53:37.491Z,1.30
2023-01-11T19:56:05.351Z,1.30
2023-01-11T19:58:33.424Z,1.30
2023-01-11T20:01:00.238Z,1.30
2023-01-11T20:03:28.392Z,1.30
2023-01-11T20:06:03.427Z,1.20
2023-01-11T20:08:30.238Z,1.30
2023-01-11T20:10:56.984Z,1.30
2023-01-11T20:13:23.764Z,1.20
2023-01-11T20:15:51.015Z,1.30
2023-01-11T20:18:17.790Z,1.30
2023-01-11T20:20:44.575Z,1.30
2023-01-11T20:23:11.323Z,1.20
2023-01-11T20:25:39.708Z,1.30
2023-01-11T20:28:07.537Z,1.30
2023-01-11T20:30:34.294Z,1.30
2023-01-11T20:33:01.036Z,1.30
2023-01-11T20:35:27.910Z,1.30
2023-01-11T20:37:54.687Z,1.30
2023-01-11T20:40:21.496Z,1.30
2023-01-11T20:42:48.265Z,1.30
2023-01-11T20:45:15.041Z,1.30
2023-01-11T20:47:44.216Z,1.30
2023-01-11T20:50:11.087Z,1.30
2023-01-11T20:52:37.838Z,1.40
2023-01-11T20:55:06.403Z,1.30
2023-01-11T20:57:33.184Z,1.30
2023-01-11T20:59:59.935Z,1.30
2023-01-11T21:02:26.828Z,1.40
2023-01-11T21:04:53.656Z,1.40
2023-01-11T21:07:20.496Z,1.40
2023-01-11T21:09:47.271Z,1.40
2023-01-11T21:12:14.118Z,1.40
2023-01-11T21:14:40.870Z,1.40
2023-01-11T21:17:09.206Z,1.40
2023-01-11T21:19:35.991Z,1.40
2023-01-11T21:22:02.746Z,1.40
2023-01-11T21:24:29.593Z,1.50
2023-01-11T21:26:56.435Z,1.50
2023-01-11T21:29:23.384Z,1.50
2023-01-11T21:31:50.144Z,1.50
2023-01-11T21:34:16.921Z,1.50
2023-01-11T21:36:44.054Z,1.50
2023-01-11T21:39:12.560Z,1.50
2023-01-11T21:42:01.298Z,1.50
2023-01-11T21:44:33.482Z,1.60
2023-01-11T21:47:04.103Z,1.60
2023-01-11T21:49:31.507Z,1.60
2023-01-11T21:51:58.488Z,1.60
2023-01-11T21:54:25.330Z,1.60
2023-01-11T21:56:52.205Z,1.60
2023-01-11T21:59:20.422Z,1.60
2023-01-11T22:01:49.289Z,1.60
2023-01-11T22:04:17.611Z,1.60
2023-01-11T22:06:51.313Z,1.60
2023-01-11T22:09:19.247Z,1.70
2023-01-11T22:11:46.301Z,1.70
2023-01-11T22:14:13.112Z,1.70
2023-01-11T22:16:40.807Z,1.70
2023-01-11T22:19:07.822Z,1.70
2023-01-11T22:21:35.835Z,1.70
2023-01-11T22:24:02.697Z,1.70
2023-01-11T22:26:33.762Z,1.70
2023-01-11T22:29:12.936Z,1.70
2023-01-11T22:31:40.866Z,1.70
2023-01-11T22:34:07.760Z,1.70
2023-01-11T22:36:34.637Z,1.80
2023-01-11T22:39:01.405Z,1.80
2023-01-11T22:41:28.232Z,1.80
2023-01-11T22:43:55.507Z,1.80
2023-01-11T22:46:23.841Z,1.80
2023-01-11T22:48:50.791Z,1.80
2023-01-11T22:51:18.390Z,1.80
2023-01-11T22:53:46.201Z,1.80
2023-01-11T22:56:14.168Z,1.80
2023-01-11T22:58:40.933Z,1.80
2023-01-11T23:01:12.248Z,1.80
2023-01-11T23:03:39.739Z,1.80
2023-01-11T23:06:07.017Z,1.80
2023-01-11T23:08:43.871Z,1.80
2023-01-11T23:11:13.982Z,1.80
2023-01-11T23:13:52.943Z,1.80
2023-01-11T23:16:19.875Z,1.80
2023-01-11T23:18:48.494Z,1.80
2023-01-11T23:21:16.154Z,1.90
2023-01-11T23:23:43.321Z,1.90
2023-01-11T23:26:11.939Z,1.80
2023-01-11T23:28:39.281Z,1.90
2023-01-11T23:31:18.735Z,1.80
2023-01-11T23:33:46.472Z,1.90
2023-01-11T23:36:13.756Z,1.90
2023-01-11T23:38:40.652Z,1.90
2023-01-11T23:41:36.136Z,1.90
2023-01-11T23:44:05.797Z,1.90
2023-01-11T23:46:50.976Z,1.90
2023-01-11T23:49:18.028Z,1.90
2023-01-11T23:51:44.929Z,1.90
2023-01-11T23:54:12.114Z,2.00
2023-01-11T23:56:39.064Z,2.00
2023-01-11T23:59:06.549Z,2.00
